map of PKU home
PKU - Airport
Location
City:  Pekanbaru, Riau, Indonesia
Name:Sultan Syarif Kasim II International Airport
Old (Alt.):Simpang Tiga Airport
ICAO:WIBB
IATA:PKU

Details
Type:Airport (Aerodrome, Airfield)
Use:Public/Civil, Military, International (customs port of entry)
Latitude:027'39"N (0.460786)
Longitude:10126'40"E (101.444539)
Datum:WGS 1984
Elevation:102 ft (31 m)
Variation:0.05E (WMM2015 magnetic declination)
0.01 annual change
Runways:1
Longest:7360 × 98 ft (2243 × 30 m), paved

Time
Time Zone:UTC+7
Local Time:

Weather
METAR:WIBB 170900Z 10005KT 8000 SCT015 29/24 Q1007

Related Locations
Nearby:
Farthest:LTX: 12446 mi / 20031 km
Latacunga [Cotopaxi Intl], X, EC

Find:

   beyond  
but within

Other Information
Maps:
NOTAMs:
Links:
Sources:

  
  • flag of Indonesia
  • flag of Riau
  

Sectional Chart

Flight Planning
at skyvector.com

Satellite Image

Google Maps Satellite view

 

Copyright © 2004-2018 Karl L. Swartz. All rights reserved.
The Great Circle Mapper name and logo are trademarks of the Great Circle Mapper.
All other trademarks mentioned herein belong to their respective owners.
Please see credits for attibutions and further copyright information.

  Follow gcmap on Facebook Follow gcmap on Twitter Follow gcmap on Google+ GCmap on LinkedIn

hCard Microformat

Geo Microformat